createdAt,value
2023-01-28T00:01:48.919Z,139.70
2023-01-28T00:04:16.720Z,139.73
2023-01-28T00:06:44.617Z,139.47
2023-01-28T00:09:13.166Z,139.10
2023-01-28T00:11:42.544Z,139.20
2023-01-28T00:14:12.359Z,139.80
2023-01-28T00:16:40.355Z,138.77
2023-01-28T00:19:08.310Z,138.93
2023-01-28T00:21:36.129Z,138.93
2023-01-28T00:24:04.175Z,138.47
2023-01-28T00:26:32.025Z,138.37
2023-01-28T00:29:01.140Z,139.10
2023-01-28T00:31:29.676Z,139.43
2023-01-28T00:33:58.494Z,139.00
2023-01-28T00:36:28.039Z,138.93
2023-01-28T00:38:56.992Z,139.13
2023-01-28T00:41:26.999Z,139.53
2023-01-28T00:43:55.280Z,139.20
2023-01-28T00:46:25.269Z,139.47
2023-01-28T00:48:53.480Z,139.27
2023-01-28T00:51:22.203Z,139.37
2023-01-28T00:53:50.977Z,139.43
2023-01-28T00:56:19.757Z,138.83
2023-01-28T00:58:47.951Z,139.33
2023-01-28T01:01:18.759Z,138.40
2023-01-28T01:03:54.310Z,138.63
2023-01-28T01:06:23.195Z,138.57
2023-01-28T01:08:51.611Z,139.00
2023-01-28T01:11:19.801Z,138.30
2023-01-28T01:13:51.981Z,139.47
2023-01-28T01:16:19.870Z,139.13
2023-01-28T01:18:52.206Z,138.73
2023-01-28T01:21:22.374Z,138.67
2023-01-28T01:23:50.402Z,139.07
2023-01-28T01:26:18.706Z,139.60
2023-01-28T01:28:46.988Z,138.57
2023-01-28T01:31:16.339Z,138.23
2023-01-28T01:33:45.195Z,139.10
2023-01-28T01:36:17.060Z,139.23
2023-01-28T01:38:45.763Z,138.43
2023-01-28T01:41:24.338Z,139.20
2023-01-28T01:43:54.120Z,139.10
2023-01-28T01:46:25.958Z,138.50
2023-01-28T01:48:57.156Z,138.67
2023-01-28T01:51:31.919Z,138.47
2023-01-28T01:54:01.322Z,138.57
2023-01-28T01:56:34.345Z,138.77
2023-01-28T01:59:04.654Z,138.47
2023-01-28T02:01:33.497Z,138.77
2023-01-28T02:04:08.213Z,138.63
2023-01-28T02:06:38.789Z,138.43
2023-01-28T02:09:22.789Z,139.33
2023-01-28T02:11:52.589Z,138.87
2023-01-28T02:14:30.702Z,138.83
2023-01-28T02:16:59.836Z,139.20
2023-01-28T02:19:33.230Z,139.47
2023-01-28T02:22:20.928Z,138.20
2023-01-28T02:25:19.257Z,137.53
2023-01-28T02:28:18.756Z,138.37
2023-01-28T02:30:58.439Z,138.17
2023-01-28T02:33:31.807Z,138.80
2023-01-28T02:36:08.903Z,137.97
2023-01-28T02:38:42.076Z,138.43
2023-01-28T02:41:14.837Z,138.57
2023-01-28T02:43:46.002Z,138.70
2023-01-28T02:46:38.865Z,139.20
2023-01-28T02:49:11.845Z,138.97
2023-01-28T02:51:54.055Z,138.23
2023-01-28T02:54:34.373Z,138.37
2023-01-28T02:57:12.137Z,138.67
2023-01-28T02:59:49.426Z,138.37
2023-01-28T03:02:24.621Z,137.83
2023-01-28T03:04:59.350Z,137.63
2023-01-28T03:07:30.426Z,137.43
2023-01-28T03:10:04.232Z,137.50
2023-01-28T03:12:51.234Z,137.73
2023-01-28T03:15:40.848Z,137.83
2023-01-28T03:18:30.187Z,137.63
2023-01-28T03:21:23.003Z,137.53
2023-01-28T03:24:14.922Z,137.27
2023-01-28T03:27:06.415Z,137.37
2023-01-28T03:29:53.580Z,138.80
2023-01-28T03:32:41.859Z,138.37
2023-01-28T03:35:30.054Z,138.47
2023-01-28T03:38:00.152Z,138.37
2023-01-28T03:40:29.685Z,138.00
2023-01-28T03:42:57.704Z,138.80
2023-01-28T03:45:35.775Z,138.83
2023-01-28T03:48:07.997Z,138.93
2023-01-28T03:50:35.868Z,138.80
2023-01-28T03:53:16.380Z,139.27
2023-01-28T03:55:52.352Z,138.80
2023-01-28T03:58:20.898Z,140.00
2023-01-28T04:00:48.768Z,139.00
2023-01-28T04:03:19.726Z,139.37
2023-01-28T04:06:02.546Z,139.37
2023-01-28T04:08:53.020Z,139.00
2023-01-28T04:11:43.792Z,138.83
2023-01-28T04:14:15.153Z,139.23
2023-01-28T04:16:54.758Z,139.10
2023-01-28T04:19:25.737Z,139.40
2023-01-28T04:21:55.019Z,138.80
2023-01-28T04:24:23.678Z,139.83
2023-01-28T04:26:51.628Z,138.83
2023-01-28T04:29:20.195Z,139.03
2023-01-28T04:31:48.920Z,139.57
2023-01-28T04:34:38.328Z,138.97
2023-01-28T04:37:25.609Z,139.17
2023-01-28T04:40:10.281Z,139.33
2023-01-28T04:42:57.182Z,138.80
2023-01-28T04:45:48.216Z,137.87
2023-01-28T04:48:36.434Z,139.03
2023-01-28T04:51:28.745Z,137.27
2023-01-28T04:54:16.430Z,138.30
2023-01-28T04:56:44.526Z,138.43
2023-01-28T04:59:12.449Z,139.43
2023-01-28T05:01:40.401Z,138.67
2023-01-28T05:04:09.728Z,138.83
2023-01-28T05:06:41.005Z,139.03
2023-01-28T05:09:16.001Z,138.87
2023-01-28T05:11:44.422Z,138.63
2023-01-28T05:14:12.295Z,138.43
2023-01-28T05:16:44.474Z,138.70
2023-01-28T05:19:13.025Z,138.80
2023-01-28T05:21:44.451Z,139.20
2023-01-28T05:24:35.561Z,138.63
2023-01-28T05:27:07.439Z,139.37
2023-01-28T05:29:35.326Z,138.50
2023-01-28T05:32:03.157Z,138.77
2023-01-28T05:34:32.020Z,138.80
2023-01-28T05:37:05.168Z,138.93
2023-01-28T05:39:36.392Z,138.73
2023-01-28T05:42:05.289Z,138.57
2023-01-28T05:44:36.251Z,138.90
2023-01-28T05:47:16.831Z,139.17
2023-01-28T05:49:47.591Z,139.60
2023-01-28T05:52:40.397Z,139.77
2023-01-28T05:55:13.894Z,139.33
2023-01-28T05:57:42.520Z,139.17
2023-01-28T06:00:13.493Z,139.33
2023-01-28T06:02:45.918Z,138.83
2023-01-28T06:05:16.250Z,139.23
2023-01-28T06:07:47.459Z,138.83
2023-01-28T06:10:17.937Z,138.73
2023-01-28T06:12:46.229Z,138.53
2023-01-28T06:15:32.710Z,138.53
2023-01-28T06:18:03.550Z,138.80
2023-01-28T06:20:34.474Z,138.47
2023-01-28T06:23:04.045Z,138.63
2023-01-28T06:25:31.926Z,138.47
2023-01-28T06:28:04.517Z,138.20
2023-01-28T06:30:32.466Z,138.30
2023-01-28T06:33:00.293Z,138.80
2023-01-28T06:35:28.118Z,138.17
2023-01-28T06:37:56.039Z,138.00
2023-01-28T06:40:25.928Z,138.70
2023-01-28T06:42:53.717Z,138.40
2023-01-28T06:45:21.595Z,138.43
2023-01-28T06:47:49.419Z,138.10
2023-01-28T06:50:18.181Z,138.13
2023-01-28T06:52:46.030Z,138.30
2023-01-28T06:55:13.905Z,138.70
2023-01-28T06:57:45.130Z,138.53
2023-01-28T07:00:15.834Z,138.57
2023-01-28T07:02:44.033Z,138.80
2023-01-28T07:05:12.226Z,138.83
2023-01-28T07:07:41.842Z,138.20
2023-01-28T07:10:11.413Z,138.07
2023-01-28T07:12:39.485Z,138.73
2023-01-28T07:15:11.009Z,138.60
2023-01-28T07:17:40.699Z,137.93
2023-01-28T07:20:11.335Z,138.17
2023-01-28T07:22:40.273Z,137.87
2023-01-28T07:25:09.257Z,137.10
2023-01-28T07:27:37.341Z,136.67
2023-01-28T07:30:05.821Z,136.07
2023-01-28T07:32:35.069Z,135.73
2023-01-28T07:35:02.926Z,135.70
2023-01-28T07:37:30.989Z,135.90
2023-01-28T07:39:58.770Z,135.00
2023-01-28T07:42:26.543Z,134.73
2023-01-28T07:44:54.571Z,135.33
2023-01-28T07:47:22.482Z,134.83
2023-01-28T07:49:51.657Z,135.23
2023-01-28T07:52:19.495Z,134.83
2023-01-28T07:54:47.291Z,135.10
2023-01-28T07:57:15.119Z,134.57
2023-01-28T07:59:42.982Z,134.37
2023-01-28T08:02:13.284Z,134.00
2023-01-28T08:04:42.810Z,134.23
2023-01-28T08:07:12.660Z,134.27
2023-01-28T08:09:40.763Z,134.53
2023-01-28T08:12:08.699Z,134.27
2023-01-28T08:14:38.558Z,134.37
2023-01-28T08:17:06.438Z,133.73
2023-01-28T08:19:35.803Z,133.03
2023-01-28T08:22:03.667Z,134.00
2023-01-28T08:24:32.784Z,134.17
2023-01-28T08:27:00.634Z,133.53
2023-01-28T08:29:31.476Z,134.07
2023-01-28T08:32:04.040Z,133.50
2023-01-28T08:34:31.957Z,132.87
2023-01-28T08:36:59.769Z,133.60
2023-01-28T08:39:27.699Z,133.73
2023-01-28T08:41:56.803Z,133.80
2023-01-28T08:44:24.591Z,134.07
2023-01-28T08:46:52.442Z,133.97
2023-01-28T08:49:22.155Z,133.50
2023-01-28T08:51:49.976Z,133.47
2023-01-28T08:54:18.218Z,132.77
2023-01-28T08:56:46.058Z,132.93
2023-01-28T08:59:15.423Z,133.73
2023-01-28T09:01:43.226Z,133.93
2023-01-28T09:04:11.049Z,133.90
2023-01-28T09:06:38.883Z,133.93
2023-01-28T09:09:06.693Z,135.37
2023-01-28T09:11:34.474Z,138.67
2023-01-28T09:14:07.084Z,141.60
2023-01-28T09:16:36.857Z,144.90
2023-01-28T09:19:04.686Z,146.53
2023-01-28T09:21:32.532Z,147.93
2023-01-28T09:24:00.477Z,148.70
2023-01-28T09:26:28.380Z,150.03
2023-01-28T09:28:56.221Z,151.00
2023-01-28T09:31:24.154Z,152.07
2023-01-28T09:33:56.623Z,151.20
2023-01-28T09:36:24.613Z,152.77
2023-01-28T09:38:53.096Z,152.77
2023-01-28T09:41:35.718Z,152.77
2023-01-28T09:44:16.385Z,152.90
2023-01-28T09:46:45.661Z,153.07
2023-01-28T09:49:22.094Z,152.97
2023-01-28T09:51:53.454Z,153.07
2023-01-28T09:54:28.565Z,153.13
2023-01-28T09:57:05.307Z,153.03
2023-01-28T09:59:36.290Z,153.17
2023-01-28T10:02:18.309Z,153.10
2023-01-28T10:04:58.329Z,153.60
2023-01-28T10:07:35.783Z,153.27
2023-01-28T10:10:09.629Z,153.27
2023-01-28T10:13:08.722Z,153.20
2023-01-28T10:15:54.714Z,152.87
2023-01-28T10:18:31.722Z,153.23
2023-01-28T10:21:07.849Z,152.83
2023-01-28T10:23:45.074Z,153.43
2023-01-28T10:26:24.099Z,154.37
2023-01-28T10:28:56.856Z,153.70
2023-01-28T10:31:31.338Z,154.53
2023-01-28T10:34:00.072Z,153.90
2023-01-28T10:36:30.091Z,154.40
2023-01-28T10:38:57.963Z,154.53
2023-01-28T10:41:26.744Z,155.17
2023-01-28T10:43:54.575Z,154.67
2023-01-28T10:46:27.687Z,155.83
2023-01-28T10:49:00.976Z,154.80
2023-01-28T10:51:35.312Z,155.53
2023-01-28T10:54:03.626Z,156.03
2023-01-28T10:56:33.039Z,154.67
2023-01-28T10:59:03.325Z,155.13
2023-01-28T11:01:44.922Z,155.07
2023-01-28T11:04:19.856Z,155.67
2023-01-28T11:06:57.461Z,155.73
2023-01-28T11:09:28.051Z,155.50
2023-01-28T11:11:56.018Z,154.97
2023-01-28T11:14:26.736Z,155.07
2023-01-28T11:16:57.520Z,155.10
2023-01-28T11:19:32.411Z,154.53
2023-01-28T11:22:02.047Z,154.23
2023-01-28T11:24:32.840Z,154.50
2023-01-28T11:27:10.895Z,154.30
2023-01-28T11:29:41.994Z,154.47
2023-01-28T11:32:18.915Z,154.73
2023-01-28T11:34:51.150Z,154.27
2023-01-28T11:37:23.558Z,155.63
2023-01-28T11:40:02.353Z,155.60
2023-01-28T11:42:31.368Z,155.13
2023-01-28T11:44:59.178Z,155.00
2023-01-28T11:47:49.428Z,154.83
2023-01-28T11:50:26.315Z,154.80
2023-01-28T11:53:11.547Z,154.77
2023-01-28T11:55:50.281Z,155.07
2023-01-28T11:58:24.009Z,154.87
2023-01-28T12:01:03.556Z,154.43
2023-01-28T12:03:54.328Z,155.50
2023-01-28T12:06:44.093Z,154.90
2023-01-28T12:09:26.194Z,155.10
2023-01-28T12:12:14.808Z,154.73
2023-01-28T12:15:05.738Z,155.33
2023-01-28T12:17:47.364Z,156.40
2023-01-28T12:20:21.542Z,155.30
2023-01-28T12:23:04.500Z,155.83
2023-01-28T12:25:52.215Z,155.33
2023-01-28T12:28:33.997Z,156.10
2023-01-28T12:31:15.286Z,156.67
2023-01-28T12:34:00.006Z,156.27
2023-01-28T12:36:40.951Z,156.50
2023-01-28T12:39:19.530Z,157.03
2023-01-28T12:41:52.750Z,156.63
2023-01-28T12:44:26.643Z,156.97
2023-01-28T12:46:59.433Z,156.03
2023-01-28T12:49:33.421Z,156.43
2023-01-28T12:52:06.103Z,156.43
2023-01-28T12:54:39.089Z,156.33
2023-01-28T12:57:14.043Z,156.33
2023-01-28T12:59:46.862Z,156.20
2023-01-28T13:02:24.700Z,156.43
2023-01-28T13:04:57.986Z,156.13
2023-01-28T13:07:33.128Z,156.17
2023-01-28T13:10:05.592Z,156.47
2023-01-28T13:12:35.012Z,157.33
2023-01-28T13:15:03.811Z,156.87
2023-01-28T13:17:33.437Z,156.63
2023-01-28T13:20:01.730Z,157.03
2023-01-28T13:22:32.724Z,156.77
2023-01-28T13:25:19.767Z,156.93
2023-01-28T13:27:58.580Z,157.03
2023-01-28T13:30:30.255Z,157.00
2023-01-28T13:33:01.603Z,156.60
2023-01-28T13:35:33.799Z,156.63
2023-01-28T13:38:09.123Z,156.30
2023-01-28T13:40:39.033Z,157.30
2023-01-28T13:43:28.468Z,157.20
2023-01-28T13:45:58.119Z,156.40
2023-01-28T13:48:33.243Z,156.73
2023-01-28T13:51:02.097Z,157.07
2023-01-28T13:53:40.710Z,156.70
2023-01-28T13:56:18.408Z,156.70
2023-01-28T13:59:24.874Z,156.47
2023-01-28T14:02:25.818Z,156.83
2023-01-28T14:05:17.260Z,156.17
2023-01-28T14:08:50.821Z,156.53
2023-01-28T14:11:41.303Z,156.03
2023-01-28T14:14:39.858Z,157.30
2023-01-28T14:17:18.391Z,156.73
2023-01-28T14:19:46.919Z,156.17
2023-01-28T14:22:19.808Z,156.50
2023-01-28T14:24:48.749Z,157.07
2023-01-28T14:27:20.755Z,156.87
2023-01-28T14:30:07.878Z,155.03
2023-01-28T14:32:36.764Z,152.77
2023-01-28T14:35:10.119Z,150.83
2023-01-28T14:37:39.035Z,148.67
2023-01-28T14:40:14.169Z,148.13
2023-01-28T14:42:44.843Z,145.93
2023-01-28T14:45:28.036Z,145.33
2023-01-28T14:48:13.617Z,143.67
2023-01-28T14:50:56.380Z,143.47
2023-01-28T14:53:44.968Z,142.87
2023-01-28T14:56:21.180Z,141.50
2023-01-28T14:58:52.402Z,141.57
2023-01-28T15:01:23.877Z,140.90
2023-01-28T15:03:52.223Z,139.97
2023-01-28T15:06:24.004Z,140.20
2023-01-28T15:08:52.275Z,140.20
2023-01-28T15:11:23.418Z,140.27
2023-01-28T15:13:55.668Z,140.87
2023-01-28T15:16:28.974Z,140.73
2023-01-28T15:18:57.586Z,140.67
2023-01-28T15:21:28.579Z,142.63
2023-01-28T15:23:58.105Z,146.23
2023-01-28T15:26:27.887Z,148.07
2023-01-28T15:28:56.986Z,150.00
2023-01-28T15:31:30.019Z,151.33
2023-01-28T15:33:59.736Z,152.43
2023-01-28T15:36:30.036Z,153.10
2023-01-28T15:38:58.678Z,153.10
2023-01-28T15:41:30.944Z,154.40
2023-01-28T15:43:58.835Z,155.10
2023-01-28T15:46:28.207Z,155.20
2023-01-28T15:49:00.189Z,154.57
2023-01-28T15:51:30.873Z,155.73
2023-01-28T15:54:02.712Z,155.33
2023-01-28T15:56:31.658Z,154.57
2023-01-28T15:59:10.421Z,155.27
2023-01-28T16:01:39.681Z,155.23
2023-01-28T16:04:20.548Z,155.37
2023-01-28T16:06:48.533Z,155.63
2023-01-28T16:09:24.414Z,156.00
2023-01-28T16:11:53.021Z,156.07
2023-01-28T16:14:24.775Z,155.17
2023-01-28T16:16:55.615Z,155.70
2023-01-28T16:19:33.028Z,156.13
2023-01-28T16:22:01.759Z,154.97
2023-01-28T16:24:32.098Z,156.30
2023-01-28T16:27:01.774Z,156.27
2023-01-28T16:29:31.107Z,156.70
2023-01-28T16:32:01.116Z,156.43
2023-01-28T16:34:29.097Z,156.97
2023-01-28T16:36:59.887Z,156.47
2023-01-28T16:39:27.682Z,156.33
2023-01-28T16:41:56.836Z,156.70
2023-01-28T16:44:24.648Z,156.67
2023-01-28T16:46:52.522Z,156.93
2023-01-28T16:49:21.831Z,156.53
2023-01-28T16:51:49.731Z,156.20
2023-01-28T16:54:17.912Z,157.07
2023-01-28T16:56:46.807Z,156.63
2023-01-28T16:59:16.233Z,157.03
2023-01-28T17:01:44.522Z,156.03
2023-01-28T17:04:13.260Z,156.33
2023-01-28T17:06:44.326Z,156.90
2023-01-28T17:09:13.634Z,155.73
2023-01-28T17:11:41.949Z,156.23
2023-01-28T17:14:10.107Z,156.00
2023-01-28T17:16:38.477Z,156.23
2023-01-28T17:19:06.615Z,156.23
2023-01-28T17:21:34.522Z,155.83
2023-01-28T17:24:03.846Z,157.10
2023-01-28T17:26:33.789Z,155.83
2023-01-28T17:29:01.834Z,156.33
2023-01-28T17:31:29.905Z,156.10
2023-01-28T17:33:59.717Z,156.97
2023-01-28T17:36:27.968Z,155.83
2023-01-28T17:38:55.909Z,156.10
2023-01-28T17:41:25.085Z,157.33
2023-01-28T17:43:53.672Z,157.20
2023-01-28T17:46:23.033Z,156.20
2023-01-28T17:48:50.857Z,156.50
2023-01-28T17:51:19.227Z,156.67
2023-01-28T17:53:47.809Z,156.63
2023-01-28T17:56:18.035Z,156.00
2023-01-28T17:58:50.237Z,156.13
2023-01-28T18:01:18.363Z,156.80
2023-01-28T18:03:46.232Z,156.80
2023-01-28T18:06:14.309Z,155.90
2023-01-28T18:08:42.109Z,156.93
2023-01-28T18:11:10.579Z,156.23
2023-01-28T18:13:39.182Z,156.53
2023-01-28T18:16:11.705Z,157.07
2023-01-28T18:18:39.523Z,156.20
2023-01-28T18:21:08.299Z,157.30
2023-01-28T18:23:36.071Z,157.07
2023-01-28T18:26:07.195Z,156.40
2023-01-28T18:28:35.022Z,157.43
2023-01-28T18:31:06.075Z,157.37
2023-01-28T18:33:35.537Z,157.00
2023-01-28T18:36:06.573Z,156.70
2023-01-28T18:38:34.734Z,157.07
2023-01-28T18:41:02.688Z,156.37
2023-01-28T18:43:32.546Z,157.07
2023-01-28T18:46:00.626Z,156.70
2023-01-28T18:48:28.833Z,156.63
2023-01-28T18:50:58.391Z,157.10
2023-01-28T18:53:26.561Z,156.27
2023-01-28T18:55:54.501Z,154.10
2023-01-28T18:58:22.323Z,152.83
2023-01-28T19:00:50.472Z,151.07
2023-01-28T19:03:18.399Z,150.17
2023-01-28T19:05:46.553Z,149.03
2023-01-28T19:08:15.718Z,147.93
2023-01-28T19:10:43.554Z,147.50
2023-01-28T19:13:11.484Z,147.70
2023-01-28T19:15:39.222Z,146.97
2023-01-28T19:18:07.096Z,147.13
2023-01-28T19:20:34.895Z,146.33
2023-01-28T19:23:02.708Z,145.77
2023-01-28T19:25:31.868Z,145.63
2023-01-28T19:27:59.658Z,145.87
2023-01-28T19:30:27.486Z,146.40
2023-01-28T19:32:55.303Z,145.50
2023-01-28T19:35:24.056Z,144.93
2023-01-28T19:37:51.847Z,145.73
2023-01-28T19:40:19.855Z,145.67
2023-01-28T19:42:52.576Z,145.57
2023-01-28T19:45:20.732Z,145.17
2023-01-28T19:47:48.748Z,145.10
2023-01-28T19:50:17.308Z,144.73
2023-01-28T19:52:45.104Z,145.20
2023-01-28T19:55:12.919Z,144.53
2023-01-28T19:57:40.786Z,145.13
2023-01-28T20:00:12.034Z,144.73
2023-01-28T20:02:40.032Z,144.77
2023-01-28T20:05:11.365Z,144.90
2023-01-28T20:07:39.134Z,144.40
2023-01-28T20:10:07.760Z,144.13
2023-01-28T20:12:35.557Z,144.00
2023-01-28T20:15:03.410Z,144.37
2023-01-28T20:17:32.646Z,144.83
2023-01-28T20:20:00.507Z,145.13
2023-01-28T20:22:28.345Z,144.40
2023-01-28T20:24:57.115Z,144.27
2023-01-28T20:27:25.265Z,144.33
2023-01-28T20:29:53.322Z,144.57
2023-01-28T20:32:22.987Z,143.87
2023-01-28T20:34:52.541Z,144.63
2023-01-28T20:37:20.922Z,144.07
2023-01-28T20:39:48.812Z,143.63
2023-01-28T20:42:16.768Z,143.70
2023-01-28T20:44:44.615Z,144.27
2023-01-28T20:47:12.446Z,143.57
2023-01-28T20:49:40.295Z,143.77
2023-01-28T20:52:09.459Z,143.40
2023-01-28T20:54:37.261Z,143.93
2023-01-28T20:57:05.146Z,143.50
2023-01-28T20:59:32.929Z,143.23
2023-01-28T21:02:01.206Z,143.77
2023-01-28T21:04:29.029Z,143.50
2023-01-28T21:06:56.810Z,143.50
2023-01-28T21:09:27.717Z,143.37
2023-01-28T21:11:55.524Z,143.63
2023-01-28T21:14:23.433Z,143.60
2023-01-28T21:16:52.969Z,143.10
2023-01-28T21:19:20.891Z,143.37
2023-01-28T21:21:48.691Z,143.03
2023-01-28T21:24:16.644Z,143.23
2023-01-28T21:26:45.849Z,143.20
2023-01-28T21:29:14.520Z,142.73
2023-01-28T21:31:42.557Z,143.13
2023-01-28T21:34:10.752Z,143.10
2023-01-28T21:36:38.585Z,143.00
2023-01-28T21:39:06.537Z,143.10
2023-01-28T21:41:34.575Z,143.27
2023-01-28T21:44:03.711Z,143.13
2023-01-28T21:46:33.170Z,142.83
2023-01-28T21:49:02.638Z,143.03
2023-01-28T21:51:39.081Z,142.73
2023-01-28T21:54:08.757Z,143.03
2023-01-28T21:56:36.615Z,142.80
2023-01-28T21:59:23.229Z,143.00
2023-01-28T22:01:51.052Z,142.80
2023-01-28T22:04:18.889Z,143.07
2023-01-28T22:06:46.795Z,143.20
2023-01-28T22:09:15.043Z,143.00
2023-01-28T22:11:44.131Z,143.37
2023-01-28T22:14:14.114Z,143.13
2023-01-28T22:16:42.538Z,143.67
2023-01-28T22:19:11.087Z,143.60
2023-01-28T22:21:41.686Z,143.53
2023-01-28T22:24:12.339Z,143.20
2023-01-28T22:26:40.511Z,143.47
2023-01-28T22:29:09.298Z,142.87
2023-01-28T22:31:38.782Z,142.87
2023-01-28T22:34:07.237Z,142.77
2023-01-28T22:36:37.129Z,142.13
2023-01-28T22:39:07.910Z,142.60
2023-01-28T22:41:35.902Z,142.90
2023-01-28T22:44:04.255Z,142.67
2023-01-28T22:46:33.455Z,143.07
2023-01-28T22:49:03.197Z,142.93
2023-01-28T22:51:33.357Z,143.20
2023-01-28T22:54:01.183Z,143.07
2023-01-28T22:56:30.797Z,142.87
2023-01-28T22:58:59.884Z,142.27
2023-01-28T23:01:28.813Z,142.80
2023-01-28T23:03:56.748Z,143.27
2023-01-28T23:06:27.637Z,142.77
2023-01-28T23:08:56.143Z,142.83
2023-01-28T23:11:28.011Z,142.27
2023-01-28T23:14:16.250Z,143.57
2023-01-28T23:17:01.771Z,142.57
2023-01-28T23:19:47.092Z,142.53
2023-01-28T23:22:37.419Z,143.10
2023-01-28T23:25:05.853Z,142.40
2023-01-28T23:27:33.891Z,143.37
2023-01-28T23:30:01.747Z,143.50
2023-01-28T23:32:29.661Z,143.17
2023-01-28T23:34:57.496Z,142.93
2023-01-28T23:37:26.590Z,142.30
2023-01-28T23:39:54.437Z,142.97
2023-01-28T23:42:23.462Z,142.77
2023-01-28T23:44:51.239Z,142.60
2023-01-28T23:47:19.549Z,143.20
2023-01-28T23:49:47.386Z,143.13
2023-01-28T23:52:15.210Z,142.77
2023-01-28T23:54:44.341Z,143.03
2023-01-28T23:57:12.230Z,142.43
2023-01-28T23:59:40.075Z,142.30
